Time;durP1;ratioP1;P1;durP2;ratioP2;P2;SDS_P1;SDS_P2;PMS_P1;PMS_P2;Temp;Humidity;BMP_temperature;BMP_pressure;BME280_temperature;BME280_humidity;BME280_pressure;Samples;Min_cycle;Max_cycle;Signal;HPM_P1;HPM_P2
2022/10/08 00:01:31;;;;;;;11.27;7.93;;;;;;;12.84;100.00;100590.59;5058336;28;20229;-73
2022/10/08 00:03:57;;;;;;;14.15;7.95;;;;;;;12.79;100.00;100598.06;5064764;28;20194;-72
2022/10/08 00:06:26;;;;;;;10.10;7.18;;;;;;;12.85;100.00;100592.38;5062484;28;20197;-72
2022/10/08 00:08:56;;;;;;;9.88;6.10;;;;;;;12.83;100.00;100596.97;5077271;28;20224;-71
2022/10/08 00:11:25;;;;;;;9.25;6.60;;;;;;;12.82;100.00;100588.00;5078001;28;20200;-72
2022/10/08 00:13:54;;;;;;;16.52;8.80;;;;;;;12.80;100.00;100605.22;5069979;28;20204;-71
2022/10/08 00:16:23;;;;;;;10.40;8.10;;;;;;;12.86;100.00;100597.66;5070204;28;20567;-73
2022/10/08 00:18:53;;;;;;;16.10;9.10;;;;;;;12.94;100.00;100608.09;5055561;28;20221;-72
2022/10/08 00:21:22;;;;;;;18.23;13.55;;;;;;;12.98;100.00;100598.88;5062886;28;20239;-73
2022/10/08 00:23:50;;;;;;;16.23;14.48;;;;;;;13.04;100.00;100598.53;5069042;28;20204;-74
2022/10/08 00:26:19;;;;;;;14.40;11.00;;;;;;;13.07;100.00;100595.69;5058158;28;20582;-74
2022/10/08 00:28:47;;;;;;;23.08;14.70;;;;;;;12.96;100.00;100583.66;5053810;28;20209;-71
2022/10/08 00:31:15;;;;;;;17.27;12.90;;;;;;;12.94;100.00;100586.47;5113172;22;20235;-75
2022/10/08 00:33:42;;;;;;;21.77;12.25;;;;;;;12.95;100.00;100590.91;5113158;28;20206;-74
2022/10/08 00:36:12;;;;;;;14.27;8.57;;;;;;;12.93;100.00;100585.59;5114405;28;20282;-74
2022/10/08 00:38:39;;;;;;;12.55;8.25;;;;;;;12.93;100.00;100590.13;5116269;28;20526;-75
2022/10/08 00:41:07;;;;;;;10.38;6.68;;;;;;;12.92;100.00;100588.38;5113388;28;20231;-74
2022/10/08 00:43:39;;;;;;;12.43;6.80;;;;;;;12.97;100.00;100591.72;5104381;28;20196;-74
2022/10/08 00:46:11;;;;;;;10.10;7.07;;;;;;;13.06;100.00;100583.09;5093101;28;20192;-76
2022/10/08 00:48:37;;;;;;;8.55;6.93;;;;;;;13.09;100.00;100590.19;5093771;28;20281;-74
2022/10/08 00:51:05;;;;;;;17.67;8.65;;;;;;;12.97;100.00;100586.28;5093734;28;20224;-75
2022/10/08 00:53:34;;;;;;;11.77;8.05;;;;;;;12.89;100.00;100586.72;5091572;28;20439;-76
2022/10/08 00:56:02;;;;;;;14.52;7.38;;;;;;;12.86;100.00;100592.25;5093659;28;20200;-75
2022/10/08 00:58:31;;;;;;;11.10;7.80;;;;;;;12.88;100.00;100595.75;5101344;28;20248;-75
2022/10/08 01:00:58;;;;;;;11.55;7.57;;;;;;;12.90;100.00;100585.75;5103980;28;20239;-74
2022/10/08 01:03:24;;;;;;;14.43;8.55;;;;;;;12.89;100.00;100581.31;5090894;28;20195;-74
2022/10/08 01:06:00;;;;;;;20.88;11.27;;;;;;;12.95;100.00;100574.69;5097994;28;20196;-74
2022/10/08 01:08:37;;;;;;;14.10;7.90;;;;;;;12.99;100.00;100578.13;5083847;28;20207;-74
2022/10/08 01:11:10;;;;;;;16.30;7.78;;;;;;;13.08;100.00;100573.09;5103653;28;20641;-74
2022/10/08 01:13:43;;;;;;;14.02;7.63;;;;;;;13.13;100.00;100575.56;5095857;28;20203;-74
2022/10/08 01:16:19;;;;;;;17.02;7.95;;;;;;;13.15;100.00;100574.50;5108987;28;20196;-73
2022/10/08 01:18:52;;;;;;;24.52;8.40;;;;;;;13.24;100.00;100569.56;5105924;28;20203;-73
2022/10/08 01:21:30;;;;;;;14.32;7.75;;;;;;;13.28;100.00;100573.91;5097268;28;20255;-74
2022/10/08 01:24:11;;;;;;;11.38;7.78;;;;;;;13.32;100.00;100576.34;5091912;28;20204;-75
2022/10/08 01:26:50;;;;;;;14.07;7.75;;;;;;;13.26;100.00;100573.06;5092653;28;20204;-74
2022/10/08 01:29:22;;;;;;;11.52;6.45;;;;;;;13.28;100.00;100569.34;5091778;28;20188;-75
2022/10/08 01:31:53;;;;;;;16.75;6.97;;;;;;;13.26;100.00;100579.34;5092583;28;20180;-74
2022/10/08 01:34:25;;;;;;;16.27;6.70;;;;;;;13.28;100.00;100569.34;5087522;28;22232;-73
2022/10/08 01:36:54;;;;;;;10.73;6.60;;;;;;;13.22;100.00;100574.19;5072575;28;20195;-75
2022/10/08 01:39:24;;;;;;;11.38;6.60;;;;;;;13.24;100.00;100583.09;5072463;28;20687;-74
2022/10/08 01:41:55;;;;;;;11.55;6.72;;;;;;;13.22;100.00;100577.75;5089962;28;20218;-73
2022/10/08 01:44:27;;;;;;;12.35;7.13;;;;;;;13.24;100.00;100573.16;5092984;28;20211;-74
2022/10/08 01:46:58;;;;;;;11.70;6.72;;;;;;;13.18;100.00;100568.06;5082612;28;20680;-74
2022/10/08 01:49:29;;;;;;;10.35;7.00;;;;;;;13.05;100.00;100562.44;5091433;28;20220;-74
2022/10/08 01:52:00;;;;;;;15.93;6.93;;;;;;;13.17;100.00;100565.47;5074769;28;20642;-74
2022/10/08 01:54:29;;;;;;;10.73;7.57;;;;;;;13.17;100.00;100577.13;5072061;28;20218;-74
2022/10/08 01:56:59;;;;;;;11.48;6.28;;;;;;;13.07;100.00;100565.94;5071758;28;20673;-75
2022/10/08 01:59:33;;;;;;;10.40;6.45;;;;;;;13.08;100.00;100577.63;5072434;28;20231;-74
2022/10/08 02:02:05;;;;;;;11.68;6.80;;;;;;;13.01;100.00;100577.06;5072141;28;20201;-76
2022/10/08 02:04:36;;;;;;;9.43;5.75;;;;;;;12.95;100.00;100574.69;5073991;28;20596;-74
2022/10/08 02:07:07;;;;;;;10.32;6.72;;;;;;;12.84;100.00;100577.06;5074580;28;20214;-74
2022/10/08 02:09:35;;;;;;;11.38;5.78;;;;;;;12.76;100.00;100584.72;5073226;28;20252;-74
2022/10/08 02:12:02;;;;;;;11.63;6.43;;;;;;;12.76;100.00;100579.31;5092115;28;20200;-73
2022/10/08 02:14:31;;;;;;;14.30;6.00;;;;;;;12.68;100.00;100575.16;5093586;28;20665;-74
2022/10/08 02:17:07;;;;;;;9.23;5.95;;;;;;;12.68;100.00;100583.25;5094157;28;20195;-76
2022/10/08 02:19:44;;;;;;;12.98;6.68;;;;;;;12.45;100.00;100583.56;5091271;28;20215;-74
2022/10/08 02:22:13;;;;;;;12.25;6.60;;;;;;;12.37;100.00;100585.78;5073209;28;20208;-74
2022/10/08 02:24:45;;;;;;;8.98;6.25;;;;;;;12.35;100.00;100588.56;5073070;28;20681;-75
2022/10/08 02:27:14;;;;;;;13.77;7.03;;;;;;;12.33;100.00;100590.47;5073226;28;20189;-73
2022/10/08 02:29:46;;;;;;;12.18;7.45;;;;;;;12.28;100.00;100582.59;5073012;28;20224;-74
2022/10/08 02:32:20;;;;;;;12.35;7.70;;;;;;;12.16;100.00;100583.19;5071920;28;20545;-75
2022/10/08 02:34:53;;;;;;;11.68;7.63;;;;;;;12.15;100.00;100589.53;5071794;28;20207;-74
2022/10/08 02:37:24;;;;;;;13.98;7.97;;;;;;;12.08;100.00;100590.81;5071604;28;20196;-75
2022/10/08 02:39:56;;;;;;;13.00;7.78;;;;;;;12.01;100.00;100594.75;5071108;28;20307;-74
2022/10/08 02:42:26;;;;;;;11.38;7.68;;;;;;;11.91;100.00;100590.72;5072048;28;20217;-73
2022/10/08 02:44:58;;;;;;;13.00;8.05;;;;;;;11.85;100.00;100591.88;5071763;28;20193;-75
2022/10/08 02:47:34;;;;;;;12.55;8.00;;;;;;;11.80;100.00;100589.41;5074360;28;20552;-74
2022/10/08 02:50:04;;;;;;;12.82;7.90;;;;;;;11.75;100.00;100590.56;5077509;28;20311;-75
2022/10/08 02:52:35;;;;;;;16.35;8.90;;;;;;;11.56;100.00;100598.63;5073474;28;20522;-74
2022/10/08 02:55:06;;;;;;;10.73;8.32;;;;;;;11.68;100.00;100595.34;5071889;28;20185;-75
2022/10/08 02:57:39;;;;;;;12.45;8.00;;;;;;;11.70;100.00;100598.88;5072428;28;20193;-74
2022/10/08 03:00:09;;;;;;;15.45;7.78;;;;;;;11.59;100.00;100607.44;5072922;28;20221;-75
2022/10/08 03:02:40;;;;;;;15.90;8.27;;;;;;;11.57;100.00;100600.38;5074970;28;20223;-74
2022/10/08 03:05:14;;;;;;;15.48;8.80;;;;;;;11.53;100.00;100598.75;5075044;28;20180;-74
2022/10/08 03:07:41;;;;;;;16.67;7.63;;;;;;;11.50;100.00;100594.41;5075196;28;20565;-74
2022/10/08 03:10:08;;;;;;;12.38;8.75;;;;;;;11.45;100.00;100607.22;5075671;28;20217;-74
2022/10/08 03:12:35;;;;;;;11.68;8.10;;;;;;;11.36;100.00;100600.41;5075010;28;20205;-74
2022/10/08 03:15:02;;;;;;;13.73;7.90;;;;;;;11.27;100.00;100600.84;5074552;28;20208;-74
2022/10/08 03:17:33;;;;;;;14.50;8.35;;;;;;;11.25;100.00;100597.34;5073944;28;20196;-74
2022/10/08 03:20:02;;;;;;;15.70;9.02;;;;;;;11.25;100.00;100603.59;5074658;28;20311;-73
2022/10/08 03:22:29;;;;;;;13.38;8.75;;;;;;;11.21;100.00;100606.50;5075887;28;20223;-74
2022/10/08 03:24:56;;;;;;;11.00;8.48;;;;;;;11.17;100.00;100597.69;5076621;28;20217;-74
2022/10/08 03:27:22;;;;;;;13.18;8.75;;;;;;;11.16;100.00;100605.84;5074369;28;20657;-74
2022/10/08 03:29:49;;;;;;;22.00;9.10;;;;;;;11.13;100.00;100614.06;5073899;28;20231;-74
2022/10/08 03:32:16;;;;;;;16.40;8.50;;;;;;;11.15;100.00;100613.06;5074001;28;20211;-74
2022/10/08 03:34:43;;;;;;;18.08;9.82;;;;;;;11.10;100.00;100622.28;5080442;28;20200;-74
2022/10/08 03:37:10;;;;;;;16.02;8.63;;;;;;;11.09;100.00;100617.84;5095277;28;20203;-74
2022/10/08 03:39:36;;;;;;;15.02;8.90;;;;;;;11.05;100.00;100622.47;5080702;28;20215;-74
2022/10/08 03:42:03;;;;;;;13.82;8.43;;;;;;;10.97;100.00;100628.22;5085510;28;20220;-75
2022/10/08 03:44:29;;;;;;;12.52;8.70;;;;;;;10.92;100.00;100627.53;5094488;28;20203;-74
2022/10/08 03:46:56;;;;;;;13.15;8.77;;;;;;;10.93;100.00;100623.88;5094376;28;20562;-74
2022/10/08 03:49:22;;;;;;;14.30;8.07;;;;;;;10.93;100.00;100626.59;5079009;28;20211;-74
2022/10/08 03:51:50;;;;;;;14.52;9.15;;;;;;;10.91;100.00;100633.84;5074131;28;20223;-73
2022/10/08 03:54:17;;;;;;;16.02;8.25;;;;;;;10.91;100.00;100636.56;5074937;28;20577;-73
2022/10/08 03:56:43;;;;;;;12.77;8.50;;;;;;;10.89;100.00;100640.25;5074674;28;20207;-73
2022/10/08 03:59:10;;;;;;;12.45;9.70;;;;;;;10.80;100.00;100628.06;5085162;28;20203;-75
2022/10/08 04:01:36;;;;;;;15.85;8.63;;;;;;;10.80;100.00;100634.31;5094064;28;20208;-73
2022/10/08 04:04:03;;;;;;;12.98;9.05;;;;;;;10.77;100.00;100641.66;5094007;28;20204;-74
2022/10/08 04:06:29;;;;;;;11.73;8.10;;;;;;;10.61;100.00;100636.91;5094316;28;20196;-73
2022/10/08 04:08:59;;;;;;;14.15;8.10;;;;;;;10.61;100.00;100639.59;5093328;28;20203;-73
2022/10/08 04:11:27;;;;;;;14.93;8.38;;;;;;;10.59;100.00;100648.69;5093492;28;20224;-74
2022/10/08 04:13:53;;;;;;;18.50;8.07;;;;;;;10.51;100.00;100658.91;5095019;28;20200;-73
2022/10/08 04:16:20;;;;;;;17.27;8.93;;;;;;;10.37;100.00;100659.47;5096853;28;20199;-73
2022/10/08 04:18:47;;;;;;;17.42;7.82;;;;;;;10.43;100.00;100668.16;5085654;28;20201;-72
2022/10/08 04:21:15;;;;;;;13.82;8.45;;;;;;;10.38;100.00;100664.78;5082036;28;20228;-74
2022/10/08 04:23:43;;;;;;;12.10;7.55;;;;;;;10.36;100.00;100665.81;5081035;28;20706;-73
2022/10/08 04:26:13;;;;;;;10.65;7.18;;;;;;;10.29;100.00;100666.97;5074648;28;20203;-73
2022/10/08 04:28:41;;;;;;;19.38;8.00;;;;;;;10.27;100.00;100668.81;5077837;28;20197;-73
2022/10/08 04:31:10;;;;;;;13.57;8.80;;;;;;;10.23;100.00;100665.38;5082384;28;20240;-73
2022/10/08 04:33:37;;;;;;;9.73;7.95;;;;;;;10.17;100.00;100663.78;5073543;28;20208;-73
2022/10/08 04:36:07;;;;;;;13.52;8.02;;;;;;;10.16;100.00;100670.13;5074005;28;20200;-74
2022/10/08 04:38:34;;;;;;;10.45;7.53;;;;;;;10.10;100.00;100666.78;5073394;28;20207;-74
2022/10/08 04:41:02;;;;;;;12.10;8.57;;;;;;;10.12;100.00;100665.78;5073446;28;20220;-74
2022/10/08 04:43:31;;;;;;;16.98;8.05;;;;;;;10.14;100.00;100663.91;5074236;28;20228;-74
2022/10/08 04:45:58;;;;;;;13.88;8.75;;;;;;;10.07;100.00;100656.16;5073392;28;20184;-75
2022/10/08 04:48:24;;;;;;;11.02;7.72;;;;;;;10.06;100.00;100659.75;5092566;28;20204;-74
2022/10/08 04:50:54;;;;;;;16.52;11.95;;;;;;;10.10;100.00;100667.66;5093180;28;20212;-74
2022/10/08 04:53:21;;;;;;;14.85;9.07;;;;;;;10.02;100.00;100672.47;5093307;28;20493;-74
2022/10/08 04:55:47;;;;;;;11.35;7.78;;;;;;;9.95;100.00;100681.69;5093057;28;20231;-74
2022/10/08 04:58:14;;;;;;;26.58;18.20;;;;;;;9.93;100.00;100680.91;5092550;28;20519;-73
2022/10/08 05:00:42;;;;;;;15.70;11.88;;;;;;;9.86;100.00;100679.34;5092831;28;20235;-75
2022/10/08 05:03:09;;;;;;;19.35;9.50;;;;;;;9.88;100.00;100689.16;5092852;28;20227;-75
2022/10/08 05:05:39;;;;;;;25.05;13.32;;;;;;;9.94;100.00;100688.03;5092876;28;20210;-73
2022/10/08 05:08:05;;;;;;;33.78;24.38;;;;;;;9.83;100.00;100696.50;5092817;28;20203;-72
2022/10/08 05:10:32;;;;;;;20.27;11.75;;;;;;;9.83;100.00;100696.50;5092725;28;20577;-73
2022/10/08 05:12:58;;;;;;;19.27;8.93;;;;;;;9.79;100.00;100694.84;5092963;28;20566;-73
2022/10/08 05:15:25;;;;;;;15.05;8.48;;;;;;;9.63;100.00;100693.69;5092638;28;20199;-73
2022/10/08 05:17:53;;;;;;;17.25;7.40;;;;;;;9.70;100.00;100690.72;5092554;28;20225;-73
2022/10/08 05:20:20;;;;;;;8.85;6.93;;;;;;;9.58;100.00;100693.84;5092410;28;20224;-74
2022/10/08 05:22:46;;;;;;;11.90;7.43;;;;;;;9.51;100.00;100693.19;5090876;28;20720;-76
2022/10/08 05:25:13;;;;;;;10.65;7.55;;;;;;;9.52;100.00;100691.38;5072942;28;20204;-75
2022/10/08 05:27:39;;;;;;;12.93;7.88;;;;;;;9.45;100.00;100696.13;5073508;28;20208;-73
2022/10/08 05:30:07;;;;;;;12.25;7.22;;;;;;;9.46;100.00;100697.00;5072928;28;20566;-73
2022/10/08 05:32:34;;;;;;;14.70;6.93;;;;;;;9.44;100.00;100698.84;5073559;28;20210;-75
2022/10/08 05:35:02;;;;;;;13.63;7.07;;;;;;;9.36;100.00;100707.16;5072899;28;20203;-73
2022/10/08 05:37:28;;;;;;;27.55;19.35;;;;;;;9.41;100.00;100705.22;5072687;28;20282;-73
2022/10/08 05:39:55;;;;;;;30.67;18.92;;;;;;;9.37;100.00;100701.75;5071402;28;20236;-73
2022/10/08 05:42:21;;;;;;;10.27;7.32;;;;;;;9.31;100.00;100703.78;5071198;28;20225;-72
2022/10/08 05:44:47;;;;;;;10.82;6.90;;;;;;;9.26;100.00;100717.38;5071565;28;20219;-73
2022/10/08 05:47:14;;;;;;;11.07;7.93;;;;;;;9.25;100.00;100707.56;5071548;28;20333;-74
2022/10/08 05:49:40;;;;;;;9.23;7.32;;;;;;;9.31;100.00;100710.03;5071355;28;20260;-72
2022/10/08 05:52:08;;;;;;;15.65;9.82;;;;;;;9.33;100.00;100716.22;5071447;28;20209;-72
2022/10/08 05:54:35;;;;;;;15.60;10.25;;;;;;;9.43;100.00;100723.97;5073129;28;20200;-73
2022/10/08 05:57:01;;;;;;;9.73;8.73;;;;;;;9.37;100.00;100731.31;5083756;28;20222;-73
2022/10/08 05:59:28;;;;;;;14.90;6.68;;;;;;;9.34;100.00;100726.06;5080461;28;20209;-74
2022/10/08 06:01:54;;;;;;;9.60;6.18;;;;;;;9.38;100.00;100732.19;5076050;28;20215;-73
2022/10/08 06:04:21;;;;;;;10.68;5.80;;;;;;;9.33;100.00;100728.78;5091228;28;20701;-74
2022/10/08 06:06:47;;;;;;;13.82;6.63;;;;;;;9.34;100.00;100739.50;5076574;28;20294;-72
2022/10/08 06:09:17;;;;;;;9.82;6.80;;;;;;;9.40;100.00;100741.09;5071508;28;20203;-72
2022/10/08 06:11:44;;;;;;;11.50;8.20;;;;;;;9.41;100.00;100742.84;5072005;28;20245;-73
2022/10/08 06:14:12;;;;;;;10.40;7.38;;;;;;;9.47;100.00;100747.13;5083594;28;20660;-72
2022/10/08 06:16:39;;;;;;;9.38;6.15;;;;;;;9.48;100.00;100738.16;5092296;28;20206;-73
2022/10/08 06:19:07;;;;;;;13.25;6.78;;;;;;;9.49;100.00;100746.13;5094495;28;20198;-73
2022/10/08 06:21:34;;;;;;;11.15;6.60;;;;;;;9.46;100.00;100745.38;5089751;28;20209;-73
2022/10/08 06:24:03;;;;;;;10.77;5.93;;;;;;;9.51;100.00;100746.97;5090665;28;20221;-72
2022/10/08 06:26:34;;;;;;;15.80;8.45;;;;;;;9.58;100.00;100751.19;5092513;28;20219;-74
2022/10/08 06:29:04;;;;;;;11.52;7.22;;;;;;;9.82;100.00;100743.19;5094474;28;20207;-73
2022/10/08 06:31:30;;;;;;;7.70;5.80;;;;;;;9.89;100.00;100747.41;5092025;28;20284;-71
2022/10/08 06:33:58;;;;;;;12.60;7.70;;;;;;;10.06;100.00;100751.25;5088138;28;20191;-72
2022/10/08 06:36:27;;;;;;;16.23;11.25;;;;;;;10.22;100.00;100747.94;5098106;28;20195;-71
2022/10/08 06:38:55;;;;;;;14.98;8.02;;;;;;;10.59;100.00;100754.59;5090203;28;20260;-72
2022/10/08 06:41:22;;;;;;;22.85;14.40;;;;;;;10.83;100.00;100750.06;5080822;28;20704;-72
2022/10/08 06:43:50;;;;;;;16.20;11.70;;;;;;;11.38;100.00;100746.84;5075988;28;20592;-71
2022/10/08 06:46:18;;;;;;;14.30;6.72;;;;;;;11.64;100.00;100734.91;5074865;28;20212;-72
2022/10/08 06:48:45;;;;;;;11.85;7.90;;;;;;;11.84;100.00;100734.00;5074228;28;20701;-72
2022/10/08 06:51:15;;;;;;;12.23;7.05;;;;;;;11.84;100.00;100725.91;5074940;28;20752;-71
2022/10/08 06:53:43;;;;;;;7.47;5.95;;;;;;;11.89;100.00;100723.94;5074882;28;20404;-73
2022/10/08 06:56:13;;;;;;;8.90;6.30;;;;;;;12.14;100.00;100730.88;5075255;28;20208;-72
2022/10/08 06:58:40;;;;;;;9.07;7.00;;;;;;;12.41;100.00;100723.28;5077397;28;20207;-72
2022/10/08 07:01:09;;;;;;;11.52;6.57;;;;;;;13.03;100.00;100725.72;5091486;28;20223;-71
2022/10/08 07:03:36;;;;;;;9.40;7.68;;;;;;;13.68;100.00;100717.84;5090032;28;20219;-71
2022/10/08 07:06:05;;;;;;;12.18;7.40;;;;;;;14.15;100.00;100722.53;5084012;28;20200;-73
2022/10/08 07:08:32;;;;;;;33.58;23.30;;;;;;;14.78;100.00;100722.59;5100684;28;20200;-72
2022/10/08 07:11:04;;;;;;;17.13;10.10;;;;;;;15.23;100.00;100725.41;5102461;28;20226;-73
2022/10/08 07:13:31;;;;;;;8.27;6.82;;;;;;;15.36;100.00;100726.44;5102054;28;20640;-74
2022/10/08 07:16:01;;;;;;;9.93;6.45;;;;;;;15.88;100.00;100725.13;5103537;28;20204;-75
2022/10/08 07:18:29;;;;;;;9.07;5.63;;;;;;;16.90;100.00;100727.63;5101933;28;20563;-75
2022/10/08 07:20:56;;;;;;;11.88;6.75;;;;;;;17.23;100.00;100734.50;5105230;28;20216;-73
2022/10/08 07:23:22;;;;;;;6.70;5.72;;;;;;;18.26;100.00;100736.38;5087208;28;20220;-72
2022/10/08 07:25:55;;;;;;;15.07;7.22;;;;;;;18.68;90.75;100741.53;5104757;28;20204;-71
2022/10/08 07:28:22;;;;;;;12.48;7.13;;;;;;;18.24;94.25;100735.59;5103356;28;20185;-73
2022/10/08 07:30:48;;;;;;;15.00;6.40;;;;;;;16.88;100.00;100737.75;5089734;28;20705;-71
2022/10/08 07:33:16;;;;;;;10.20;7.27;;;;;;;16.20;100.00;100750.25;5084713;28;20445;-72
2022/10/08 07:35:44;;;;;;;12.23;7.15;;;;;;;15.93;100.00;100744.69;5098376;28;20445;-71
2022/10/08 07:38:10;;;;;;;16.20;8.35;;;;;;;16.23;100.00;100747.31;5084455;28;20392;-72
2022/10/08 07:40:37;;;;;;;10.07;7.13;;;;;;;15.97;100.00;100751.69;5101990;28;20220;-75
2022/10/08 07:43:03;;;;;;;14.45;6.47;;;;;;;15.31;100.00;100754.78;5101328;28;20315;-73
2022/10/08 07:45:30;;;;;;;13.45;6.97;;;;;;;15.48;100.00;100754.66;5099781;28;20200;-72
2022/10/08 07:47:57;;;;;;;13.52;6.97;;;;;;;16.20;100.00;100758.41;5088706;28;20223;-72
2022/10/08 07:50:24;;;;;;;9.50;6.53;;;;;;;16.45;100.00;100759.56;5081430;28;20216;-74
2022/10/08 07:52:52;;;;;;;12.73;6.72;;;;;;;17.16;100.00;100771.28;5086015;28;20561;-75
2022/10/08 07:55:18;;;;;;;8.35;6.18;;;;;;;17.64;100.00;100766.19;5100813;28;20253;-72
2022/10/08 07:57:45;;;;;;;10.85;6.35;;;;;;;18.31;95.37;100771.47;5099816;28;20204;-74
2022/10/08 08:00:12;;;;;;;8.60;5.80;;;;;;;20.23;79.88;100767.91;5086207;28;20217;-73
2022/10/08 08:02:39;;;;;;;9.93;6.17;;;;;;;20.00;75.41;100765.13;5097914;28;20556;-73
2022/10/08 08:05:06;;;;;;;8.07;4.87;;;;;;;19.75;79.33;100779.00;5090286;28;20804;-72
2022/10/08 08:07:32;;;;;;;7.57;4.57;;;;;;;19.61;72.90;100770.97;5076719;28;20461;-71
2022/10/08 08:10:00;;;;;;;14.07;4.60;;;;;;;19.10;76.35;100780.28;5093518;28;20461;-75
2022/10/08 08:12:27;;;;;;;11.97;4.73;;;;;;;18.25;83.26;100771.94;5093394;28;20438;-72
2022/10/08 08:14:53;;;;;;;6.27;4.10;;;;;;;18.93;78.42;100770.63;5093666;28;20466;-72
2022/10/08 08:17:20;;;;;;;11.07;4.27;;;;;;;18.60;81.21;100782.16;5098438;28;20452;-74
2022/10/08 08:19:47;;;;;;;8.20;3.50;;;;;;;18.84;77.10;100771.31;5092149;28;20534;-73
2022/10/08 08:22:13;;;;;;;11.23;4.07;;;;;;;18.37;82.41;100776.50;5114665;28;20447;-70
2022/10/08 08:24:40;;;;;;;10.13;4.27;;;;;;;19.29;77.45;100783.38;5101282;28;21006;-69
2022/10/08 08:27:08;;;;;;;18.27;14.03;;;;;;;20.23;74.96;100770.63;5099882;28;20437;-72
2022/10/08 08:29:34;;;;;;;13.40;7.77;;;;;;;21.06;64.16;100782.19;5099063;28;20473;-71
2022/10/08 08:32:01;;;;;;;9.60;5.13;;;;;;;21.92;60.23;100789.47;5099573;28;20422;-72
2022/10/08 08:34:27;;;;;;;10.30;5.97;;;;;;;22.02;59.77;100786.78;5086647;28;20582;-72
2022/10/08 08:36:54;;;;;;;7.03;4.10;;;;;;;22.44;55.38;100784.03;5097772;28;20858;-73
2022/10/08 08:39:22;;;;;;;11.50;6.50;;;;;;;22.43;56.91;100790.50;5072845;28;20474;-73
2022/10/08 08:42:25;;;;;;;10.33;4.80;;;;;;;20.91;60.18;100793.41;5078930;28;20568;-72
2022/10/08 08:44:58;;;;;;;5.90;3.20;;;;;;;18.71;75.97;100801.31;5082154;28;20876;-72
2022/10/08 08:47:30;;;;;;;6.30;3.53;;;;;;;17.83;83.58;100799.38;5085037;28;20491;-71
2022/10/08 08:50:00;;;;;;;11.00;4.80;;;;;;;17.77;88.04;100801.63;5080973;28;20844;-73
2022/10/08 08:52:32;;;;;;;5.13;3.00;;;;;;;17.25;89.83;100811.47;5089264;28;20462;-71
2022/10/08 08:55:01;;;;;;;10.80;3.50;;;;;;;16.58;95.94;100814.03;5088784;28;20435;-75
2022/10/08 08:57:38;;;;;;;7.35;3.53;;;;;;;16.19;100.00;100821.88;5085654;28;20192;-74
2022/10/08 09:00:14;;;;;;;5.45;3.00;;;;;;;15.87;100.00;100825.69;5075666;28;20215;-74
2022/10/08 09:02:55;;;;;;;13.02;3.90;;;;;;;15.68;100.00;100825.91;5084134;28;20667;-74
2022/10/08 09:05:25;;;;;;;7.53;3.58;;;;;;;15.47;100.00;100831.66;5075173;28;20301;-73
2022/10/08 09:07:56;;;;;;;6.78;3.30;;;;;;;15.45;100.00;100835.41;5082038;28;20200;-72
2022/10/08 09:10:30;;;;;;;8.00;3.15;;;;;;;15.41;100.00;100835.56;5094993;28;20224;-73
2022/10/08 09:12:57;;;;;;;11.15;4.20;;;;;;;15.60;100.00;100842.63;5096426;28;20629;-73
2022/10/08 09:15:32;;;;;;;5.18;3.60;;;;;;;15.91;100.00;100839.00;5115597;28;20565;-73
2022/10/08 09:18:02;;;;;;;8.13;3.60;;;;;;;16.24;100.00;100841.47;5114708;28;20230;-73
2022/10/08 09:20:29;;;;;;;9.45;4.05;;;;;;;16.82;100.00;100838.78;5101178;28;20231;-73
2022/10/08 09:22:57;;;;;;;8.05;3.58;;;;;;;17.00;99.36;100843.03;5094804;28;20693;-74
2022/10/08 09:25:27;;;;;;;11.98;4.05;;;;;;;16.83;100.00;100841.41;5077143;28;20232;-72
2022/10/08 09:27:55;;;;;;;6.47;3.65;;;;;;;16.84;100.00;100843.16;5094753;28;20208;-73
2022/10/08 09:30:33;;;;;;;8.63;3.08;;;;;;;16.57;100.00;100839.44;5094071;28;20228;-75
2022/10/08 09:33:02;;;;;;;8.15;3.15;;;;;;;16.35;100.00;100842.63;5095413;28;20211;-73
2022/10/08 09:35:31;;;;;;;7.53;3.20;;;;;;;16.09;100.00;100847.84;5095001;28;20212;-74
2022/10/08 09:37:58;;;;;;;7.00;3.33;;;;;;;16.10;100.00;100857.78;5092747;28;20208;-73
2022/10/08 09:40:26;;;;;;;5.53;3.10;;;;;;;16.31;100.00;100850.13;5092782;28;20216;-73
2022/10/08 09:43:10;;;;;;;7.05;3.33;;;;;;;17.01;97.20;100849.38;5098374;28;20229;-72
2022/10/08 09:45:42;;;;;;;10.77;3.33;;;;;;;17.39;97.18;100852.28;5115172;28;20202;-72
2022/10/08 09:48:16;;;;;;;10.57;3.63;;;;;;;17.39;94.13;100865.00;5115660;28;20282;-73
2022/10/08 09:50:56;;;;;;;11.30;3.05;;;;;;;17.22;94.80;100872.44;5096779;28;20200;-72
2022/10/08 09:53:25;;;;;;;8.55;3.00;;;;;;;16.86;97.50;100871.13;5098730;28;20185;-71
2022/10/08 09:55:56;;;;;;;7.57;2.85;;;;;;;16.85;98.08;100868.53;5114805;28;20310;-72
2022/10/08 09:58:22;;;;;;;6.80;3.10;;;;;;;16.91;99.24;100880.84;5116244;28;20202;-72
2022/10/08 10:01:01;;;;;;;7.22;3.10;;;;;;;16.88;99.44;100882.78;5114346;28;20204;-73
2022/10/08 10:03:30;;;;;;;8.45;2.80;;;;;;;17.11;99.24;100880.44;5113379;28;20203;-72
2022/10/08 10:05:58;;;;;;;6.57;2.42;;;;;;;17.73;91.51;100882.69;5103225;28;20188;-73
2022/10/08 10:08:49;;;;;;;9.05;3.00;;;;;;;18.08;86.96;100891.19;5100143;28;20195;-72
2022/10/08 10:11:21;;;;;;;9.52;2.60;;;;;;;18.18;85.82;100890.56;5003398;28;20317;-73
2022/10/08 10:13:50;;;;;;;8.40;2.65;;;;;;;18.08;86.55;100891.19;4992832;28;20207;-75
2022/10/08 10:16:23;;;;;;;4.35;2.38;;;;;;;18.17;86.75;100886.97;4991482;28;20362;-74
2022/10/08 10:18:56;;;;;;;4.45;2.08;;;;;;;18.93;80.99;100893.44;4999234;28;20199;-74
2022/10/08 10:21:29;;;;;;;7.80;2.60;;;;;;;19.97;74.47;100895.72;5001259;28;20610;-75
2022/10/08 10:24:12;;;;;;;6.07;2.23;;;;;;;19.82;74.72;100899.63;4996287;28;20329;-73
2022/10/08 10:26:42;;;;;;;8.70;2.90;;;;;;;20.19;73.49;100890.34;4999889;28;20461;-71
2022/10/08 10:29:15;;;;;;;6.30;3.00;;;;;;;21.11;67.15;100905.91;5001088;28;20453;-74
2022/10/08 10:31:47;;;;;;;7.37;3.80;;;;;;;20.71;68.26;100896.28;4999980;28;20465;-73
2022/10/08 10:34:18;;;;;;;7.07;2.50;;;;;;;20.31;69.87;100896.72;5003073;28;20822;-73
2022/10/08 10:36:50;;;;;;;6.10;2.50;;;;;;;19.77;74.84;100903.59;4984796;28;20457;-72
2022/10/08 10:39:32;;;;;;;16.23;7.33;;;;;;;21.31;68.67;100896.91;4998307;28;20453;-73
2022/10/08 10:42:07;;;;;;;51.60;40.33;;;;;;;23.02;57.59;100898.75;5000268;28;20449;-71
2022/10/08 10:44:43;;;;;;;11.40;8.13;;;;;;;22.65;57.85;100904.75;5004490;28;20923;-71
2022/10/08 10:47:11;;;;;;;5.97;4.90;;;;;;;22.13;58.32;100899.16;5009973;28;20450;-74
2022/10/08 10:49:42;;;;;;;5.70;4.10;;;;;;;21.63;61.09;100891.50;5092045;28;20538;-74
2022/10/08 10:52:30;;;;;;;10.80;5.30;;;;;;;21.36;62.80;100899.28;5093953;28;20457;-71
2022/10/08 10:55:11;;;;;;;5.93;4.70;;;;;;;21.01;65.72;100892.97;5094108;28;20791;-73
2022/10/08 10:57:54;;;;;;;7.40;3.53;;;;;;;21.07;65.07;100909.88;5091810;28;20631;-71
2022/10/08 11:00:24;;;;;;;6.70;4.07;;;;;;;21.86;61.97;100903.25;5101074;28;20456;-72
2022/10/08 11:02:59;;;;;;;7.10;2.73;;;;;;;22.16;58.92;100904.41;5104261;28;20513;-72
2022/10/08 11:05:30;;;;;;;5.80;2.60;;;;;;;23.50;54.25;100900.78;5103772;28;20466;-72
2022/10/08 11:08:11;;;;;;;6.53;3.00;;;;;;;23.41;53.48;100902.50;5104743;28;20446;-70
2022/10/08 11:10:51;;;;;;;8.97;3.67;;;;;;;22.50;56.21;100904.25;5091833;28;20469;-72
2022/10/08 11:13:44;;;;;;;4.30;2.43;;;;;;;22.16;58.78;100911.72;5095686;28;20433;-73
2022/10/08 11:16:25;;;;;;;6.50;2.70;;;;;;;21.82;59.95;100914.63;5082484;28;20445;-72
2022/10/08 11:18:55;;;;;;;4.77;2.90;;;;;;;21.60;61.14;100910.97;5091843;28;20442;-72
2022/10/08 11:21:40;;;;;;;5.80;2.33;;;;;;;21.74;60.05;100909.78;5090174;28;20470;-73
2022/10/08 11:24:20;;;;;;;4.90;2.70;;;;;;;21.95;61.35;100919.94;5089241;28;20466;-74
2022/10/08 11:26:55;;;;;;;6.73;2.80;;;;;;;21.66;62.66;100912.31;5084723;28;20437;-73